Time;durP1;ratioP1;P1;durP2;ratioP2;P2;SDS_P1;SDS_P2;PMS_P1;PMS_P2;Temp;Humidity;BMP_temperature;BMP_pressure;BME280_temperature;BME280_humidity;BME280_pressure;Samples;Min_cycle;Max_cycle;Signal;HPM_P1;HPM_P2
2022/02/14 00:06:51;;;;;;;50.1;64.6;;;;;;;-3.5;62.7;98930;;;;
2022/02/14 00:17:51;;;;;;;33.9;45.2;;;;;;;-3.9;63.2;98920;;;;
2022/02/14 00:28:51;;;;;;;33.9;45.2;;;;;;;-4;65.2;98910;;;;
2022/02/14 00:39:51;;;;;;;31.5;42.9;;;;;;;-4.2;66.9;98920;;;;
2022/02/14 00:49:52;;;;;;;31.5;42.9;;;;;;;-4.3;66.6;98900;;;;
2022/02/14 01:00:51;;;;;;;31.5;42.9;;;;;;;-4.2;65.5;98880;;;;
2022/02/14 01:10:51;;;;;;;22.5;29;;;;;;;-4.2;65.7;98870;;;;
2022/02/14 01:20:51;;;;;;;22.5;29;;;;;;;-3.7;66.8;98850;;;;
2022/02/14 01:31:51;;;;;;;22.5;29;;;;;;;-4;66.6;98840;;;;
2022/02/14 01:42:51;;;;;;;20.9;27;;;;;;;-4.2;66.6;98840;;;;
2022/02/14 01:53:51;;;;;;;20.9;27;;;;;;;-4.3;67.4;98840;;;;
2022/02/14 02:03:51;;;;;;;20.9;27;;;;;;;-4.5;67.4;98820;;;;
2022/02/14 02:13:51;;;;;;;35.3;48.1;;;;;;;-4.5;70;98810;;;;
2022/02/14 02:23:51;;;;;;;35.3;48.1;;;;;;;-4.4;69.2;98800;;;;
2022/02/14 02:34:51;;;;;;;35.3;48.1;;;;;;;-4.5;69.5;98780;;;;
2022/02/14 02:45:51;;;;;;;34.5;42.3;;;;;;;-4.6;69.7;98770;;;;
2022/02/14 02:55:51;;;;;;;34.5;42.3;;;;;;;-4.7;70;98770;;;;
2022/02/14 03:06:51;;;;;;;31.2;41.5;;;;;;;-4.8;71.3;98760;;;;
2022/02/14 03:16:51;;;;;;;31.2;41.5;;;;;;;-4.8;72.3;98770;;;;
2022/02/14 03:27:51;;;;;;;31.2;41.5;;;;;;;-4.8;72.1;98760;;;;
2022/02/14 03:37:51;;;;;;;32.9;47.2;;;;;;;-4.9;71.9;98770;;;;
2022/02/14 03:48:51;;;;;;;32.9;47.2;;;;;;;-4.9;73.7;98770;;;;
2022/02/14 03:58:51;;;;;;;32.9;47.2;;;;;;;-4.8;73.5;98780;;;;
2022/02/14 04:08:51;;;;;;;32.7;38.5;;;;;;;-5;73.2;98770;;;;
2022/02/14 04:19:51;;;;;;;32.7;38.5;;;;;;;-4.8;73.8;98770;;;;
2022/02/14 04:30:51;;;;;;;32.7;38.5;;;;;;;-4.8;74.9;98750;;;;
2022/02/14 04:40:51;;;;;;;31.9;45;;;;;;;-4.7;74.9;98740;;;;
2022/02/14 04:51:51;;;;;;;31.9;45;;;;;;;-4.7;74.8;98740;;;;
2022/02/14 05:01:51;;;;;;;31.9;45;;;;;;;-4.8;74.9;98740;;;;
2022/02/14 05:11:53;;;;;;;33.1;42.7;;;;;;;-5.1;74.4;98740;;;;
2022/02/14 05:22:51;;;;;;;33.1;42.7;;;;;;;-5.3;74.3;98750;;;;
2022/02/14 05:33:51;;;;;;;33.1;42.7;;;;;;;-5.5;75.1;98740;;;;
2022/02/14 05:43:51;;;;;;;35.2;48.1;;;;;;;-5.4;76.1;98750;;;;
2022/02/14 05:54:51;;;;;;;35.2;48.1;;;;;;;-5.4;75.8;98760;;;;
2022/02/14 06:05:51;;;;;;;42.5;54.7;;;;;;;-5.5;76.2;98760;;;;
2022/02/14 06:16:51;;;;;;;42.5;54.7;;;;;;;-5.4;77;98750;;;;
2022/02/14 06:26:51;;;;;;;42.5;54.7;;;;;;;-5.3;77.3;98770;;;;
2022/02/14 06:36:51;;;;;;;32;48;;;;;;;-5.1;77.2;98750;;;;
2022/02/14 06:46:53;;;;;;;32;48;;;;;;;-4.9;77.4;98750;;;;
2022/02/14 06:57:52;;;;;;;32;48;;;;;;;-4.5;77.7;98750;;;;
2022/02/14 07:08:51;;;;;;;43.9;55.1;;;;;;;-4.1;77.1;98750;;;;
2022/02/14 07:19:51;;;;;;;43.9;55.1;;;;;;;-3.6;76.4;98740;;;;
2022/02/14 07:30:52;;;;;;;43.9;55.1;;;;;;;-3.1;75.7;98740;;;;
2022/02/14 07:40:51;;;;;;;54;72.4;;;;;;;-2.5;74.7;98740;;;;
2022/02/14 07:50:51;;;;;;;54;72.4;;;;;;;-1.9;73.5;98730;;;;
2022/02/14 08:00:51;;;;;;;54;72.4;;;;;;;-1.3;72.1;98730;;;;
2022/02/14 08:11:51;;;;;;;53.1;64.1;;;;;;;-0.7;71.1;98740;;;;
2022/02/14 08:21:51;;;;;;;53.1;64.1;;;;;;;-0.1;70;98730;;;;
2022/02/14 08:32:51;;;;;;;53.1;64.1;;;;;;;0.5;68.5;98720;;;;
2022/02/14 08:43:51;;;;;;;48.8;60;;;;;;;1.1;67.6;98710;;;;
2022/02/14 08:53:51;;;;;;;48.8;60;;;;;;;1.8;66.9;98710;;;;
2022/02/14 09:04:51;;;;;;;48.8;60;;;;;;;2.5;66.5;98700;;;;
2022/02/14 09:14:51;;;;;;;48.2;56.2;;;;;;;3.2;65.3;98690;;;;
2022/02/14 09:24:51;;;;;;;48.2;56.2;;;;;;;3.9;64.5;98690;;;;
2022/02/14 09:34:51;;;;;;;35.8;42.2;;;;;;;4.6;63;98680;;;;
2022/02/14 09:44:51;;;;;;;35.8;42.2;;;;;;;5.3;60.9;98670;;;;
2022/02/14 09:55:51;;;;;;;35.8;42.2;;;;;;;6.1;57.9;98670;;;;
2022/02/14 10:05:52;;;;;;;21.3;27;;;;;;;6.7;56.1;98660;;;;
2022/02/14 10:16:51;;;;;;;21.3;27;;;;;;;7.3;54.3;98670;;;;
2022/02/14 10:26:51;;;;;;;21.3;27;;;;;;;7.8;52.2;98660;;;;
2022/02/14 10:36:51;;;;;;;11.3;15.3;;;;;;;8;50.8;98640;;;;
2022/02/14 10:47:51;;;;;;;11.3;15.3;;;;;;;8.3;50.1;98630;;;;
2022/02/14 10:58:51;;;;;;;11.3;15.3;;;;;;;8.7;49.8;98620;;;;
2022/02/14 11:08:51;;;;;;;10.1;16.1;;;;;;;9.2;48.5;98610;;;;
2022/02/14 11:18:52;;;;;;;10.1;16.1;;;;;;;9.3;47.6;98610;;;;
2022/02/14 11:29:52;;;;;;;10.1;16.1;;;;;;;9.2;46.4;98600;;;;
2022/02/14 11:40:52;;;;;;;10.7;13.8;;;;;;;9.8;45.1;98600;;;;
2022/02/14 11:51:53;;;;;;;10.7;13.8;;;;;;;10;42.2;98590;;;;
2022/02/14 12:01:51;;;;;;;10.7;13.8;;;;;;;10.3;42.4;98580;;;;
2022/02/14 12:11:51;;;;;;;13;17.5;;;;;;;10.4;42.5;98560;;;;
2022/02/14 12:22:51;;;;;;;13;17.5;;;;;;;10.4;41;98550;;;;
2022/02/14 12:33:51;;;;;;;13;17.5;;;;;;;10.5;41;98540;;;;
2022/02/14 12:43:51;;;;;;;11.7;16.3;;;;;;;10.4;41.1;98540;;;;
2022/02/14 12:54:51;;;;;;;11.7;16.3;;;;;;;10.7;43.6;98520;;;;
2022/02/14 13:05:51;;;;;;;10.1;14.4;;;;;;;10.9;43.3;98510;;;;
2022/02/14 13:16:51;;;;;;;10.1;14.4;;;;;;;10.4;42.1;98500;;;;
2022/02/14 13:26:51;;;;;;;10.1;14.4;;;;;;;10.7;42.2;98480;;;;
2022/02/14 13:36:51;;;;;;;8.8;14.2;;;;;;;10.6;41.3;98480;;;;
2022/02/14 13:46:51;;;;;;;8.8;14.2;;;;;;;10.7;42;98460;;;;
2022/02/14 13:51:47;;;;;;;8.8;14.2;;;;;;;10.7;42;98470;;;;
2022/02/14 14:01:47;;;;;;;8.8;14.2;;;;;;;10.6;41.6;98460;;;;
2022/02/14 14:12:47;;;;;;;8.9;13.5;;;;;;;10.6;39;98450;;;;
2022/02/14 14:23:47;;;;;;;8.9;13.5;;;;;;;10.2;36.8;98440;;;;
2022/02/14 14:34:47;;;;;;;4;7;;;;;;;9.9;37.3;98430;;;;
2022/02/14 14:45:46;;;;;;;4;7;;;;;;;9.5;39.8;98440;;;;
2022/02/14 14:55:47;;;;;;;4;7;;;;;;;9;40.2;98440;;;;
2022/02/14 15:05:47;;;;;;;3.7;7.3;;;;;;;8.6;41.4;98430;;;;
2022/02/14 15:15:46;;;;;;;3.7;7.3;;;;;;;8.4;41.8;98440;;;;
2022/02/14 15:25:47;;;;;;;3.7;7.3;;;;;;;8.1;42.8;98430;;;;
2022/02/14 15:35:47;;;;;;;4.3;6.7;;;;;;;7.8;43.2;98430;;;;
2022/02/14 15:45:47;;;;;;;4.3;6.7;;;;;;;7.7;43;98410;;;;
2022/02/14 15:56:47;;;;;;;4.3;6.7;;;;;;;7.6;43.3;98420;;;;
2022/02/14 16:06:47;;;;;;;4.2;6.7;;;;;;;7.2;44.3;98420;;;;
2022/02/14 16:17:47;;;;;;;4.2;6.7;;;;;;;6.8;45.3;98410;;;;
2022/02/14 16:28:47;;;;;;;4.2;6.7;;;;;;;6.5;46.5;98420;;;;
2022/02/14 16:38:47;;;;;;;5.3;8.8;;;;;;;6.2;47.2;98410;;;;
2022/02/14 16:48:47;;;;;;;5.3;8.8;;;;;;;6;48;98420;;;;
2022/02/14 16:58:47;;;;;;;5.3;8.8;;;;;;;5.8;49.2;98410;;;;
2022/02/14 17:09:47;;;;;;;6.1;8.6;;;;;;;5.8;48.9;98420;;;;
2022/02/14 17:19:47;;;;;;;6.1;8.6;;;;;;;5.4;50.3;98420;;;;
2022/02/14 17:30:47;;;;;;;6.1;8.6;;;;;;;5.2;51.4;98430;;;;
2022/02/14 17:41:47;;;;;;;7.5;10.1;;;;;;;4.6;51.9;98420;;;;
2022/02/14 17:52:47;;;;;;;7.5;10.1;;;;;;;4;52.7;98420;;;;
2022/02/14 18:03:47;;;;;;;94.4;117.5;;;;;;;3.7;53.8;98420;;;;
2022/02/14 18:14:00;;;;;;;94.4;117.5;;;;;;;3.3;55.2;98400;;;;
2022/02/14 18:24:47;;;;;;;94.4;117.5;;;;;;;3.1;56.6;98400;;;;
2022/02/14 18:35:47;;;;;;;49.1;64.5;;;;;;;3.1;57.4;98390;;;;
2022/02/14 18:45:47;;;;;;;49.1;64.5;;;;;;;3;58.3;98400;;;;
2022/02/14 18:55:47;;;;;;;49.1;64.5;;;;;;;2.9;58.5;98410;;;;
2022/02/14 19:06:47;;;;;;;27.8;38.9;;;;;;;2.4;58.8;98410;;;;
2022/02/14 19:16:51;;;;;;;27.8;38.9;;;;;;;2.2;60.3;98410;;;;
2022/02/14 19:26:47;;;;;;;27.8;38.9;;;;;;;2.1;61.4;98410;;;;
2022/02/14 19:36:47;;;;;;;41.2;51.5;;;;;;;2.1;61.5;98410;;;;
2022/02/14 19:47:47;;;;;;;41.2;51.5;;;;;;;1.9;62.1;98410;;;;
2022/02/14 19:57:48;;;;;;;41.2;51.5;;;;;;;2;62.9;98400;;;;
2022/02/14 20:07:47;;;;;;;54.3;70.5;;;;;;;2.1;62.9;98410;;;;
2022/02/14 20:18:47;;;;;;;54.3;70.5;;;;;;;1.8;62.7;98410;;;;
2022/02/14 20:28:47;;;;;;;54.3;70.5;;;;;;;1.3;63.4;98410;;;;
2022/02/14 20:39:47;;;;;;;54.2;63.3;;;;;;;0.9;64.4;98400;;;;
2022/02/14 20:50:47;;;;;;;54.2;63.3;;;;;;;0.7;65.2;98410;;;;
2022/02/14 21:00:47;;;;;;;54.2;63.3;;;;;;;0.9;65.8;98400;;;;
2022/02/14 21:11:47;;;;;;;37.2;48.4;;;;;;;0.8;65.7;98400;;;;
2022/02/14 21:22:47;;;;;;;37.2;48.4;;;;;;;1;66.8;98400;;;;
2022/02/14 21:32:47;;;;;;;37.2;48.4;;;;;;;1.1;66.7;98400;;;;
2022/02/14 21:43:47;;;;;;;28.6;36.6;;;;;;;1.2;66.4;98390;;;;
2022/02/14 21:53:47;;;;;;;28.6;36.6;;;;;;;1.2;66.6;98380;;;;
2022/02/14 22:03:47;;;;;;;29.2;37.7;;;;;;;1.5;66.1;98370;;;;
2022/02/14 22:13:47;;;;;;;29.2;37.7;;;;;;;1.7;66.2;98370;;;;
2022/02/14 22:24:47;;;;;;;29.2;37.7;;;;;;;1.9;65.9;98370;;;;
2022/02/14 22:34:47;;;;;;;44.6;52;;;;;;;1.2;65.7;98370;;;;
2022/02/14 22:45:47;;;;;;;44.6;52;;;;;;;0.6;66.6;98370;;;;
2022/02/14 22:55:47;;;;;;;44.6;52;;;;;;;0.1;67.7;98370;;;;
2022/02/14 23:05:47;;;;;;;72.2;86;;;;;;;-0.2;68.2;98350;;;;
2022/02/14 23:15:47;;;;;;;72.2;86;;;;;;;-0.5;69.1;98350;;;;
2022/02/14 23:26:47;;;;;;;72.2;86;;;;;;;-0.7;70.2;98340;;;;
2022/02/14 23:37:47;;;;;;;76;91.4;;;;;;;-1;70.4;98350;;;;
2022/02/14 23:47:47;;;;;;;76;91.4;;;;;;;-1.1;72.4;98340;;;;
2022/02/14 23:58:47;;;;;;;76;91.4;;;;;;;-1.2;72.5;98330;;;;
